sensor_id;sensor_type;location;lat;lon;timestamp;P1;durP1;ratioP1;P2;durP2;ratioP2
68140;SDS011;54941;52.220;104.306;2024-02-28T00:00:17;3.20;;;1.70;;
68140;SDS011;54941;52.220;104.306;2024-02-28T00:02:45;5.10;;;2.50;;
68140;SDS011;54941;52.220;104.306;2024-02-28T00:05:12;5.10;;;2.38;;
68140;SDS011;54941;52.220;104.306;2024-02-28T00:07:38;7.65;;;2.45;;
68140;SDS011;54941;52.220;104.306;2024-02-28T00:10:04;5.35;;;1.48;;
68140;SDS011;54941;52.220;104.306;2024-02-28T00:12:31;5.40;;;2.08;;
68140;SDS011;54941;52.220;104.306;2024-02-28T00:14:57;5.65;;;2.08;;
68140;SDS011;54941;52.220;104.306;2024-02-28T00:17:24;5.70;;;2.38;;
68140;SDS011;54941;52.220;104.306;2024-02-28T00:19:52;6.38;;;2.47;;
68140;SDS011;54941;52.220;104.306;2024-02-28T00:22:18;4.90;;;2.75;;
68140;SDS011;54941;52.220;104.306;2024-02-28T00:24:45;4.65;;;1.65;;
68140;SDS011;54941;52.220;104.306;2024-02-28T00:27:11;5.45;;;1.95;;
68140;SDS011;54941;52.220;104.306;2024-02-28T00:29:37;5.78;;;2.22;;
68140;SDS011;54941;52.220;104.306;2024-02-28T00:32:03;5.70;;;2.60;;
68140;SDS011;54941;52.220;104.306;2024-02-28T00:34:30;5.28;;;2.53;;
68140;SDS011;54941;52.220;104.306;2024-02-28T00:36:58;7.43;;;2.13;;
68140;SDS011;54941;52.220;104.306;2024-02-28T00:39:24;3.55;;;2.08;;
68140;SDS011;54941;52.220;104.306;2024-02-28T00:41:50;5.32;;;2.05;;
68140;SDS011;54941;52.220;104.306;2024-02-28T00:44:17;4.53;;;2.30;;
68140;SDS011;54941;52.220;104.306;2024-02-28T00:46:43;5.47;;;2.58;;
68140;SDS011;54941;52.220;104.306;2024-02-28T00:49:09;4.93;;;2.35;;
68140;SDS011;54941;52.220;104.306;2024-02-28T00:51:35;6.38;;;2.65;;
68140;SDS011;54941;52.220;104.306;2024-02-28T00:54:03;6.03;;;3.00;;
68140;SDS011;54941;52.220;104.306;2024-02-28T00:56:30;6.15;;;2.78;;
68140;SDS011;54941;52.220;104.306;2024-02-28T00:58:56;5.55;;;1.88;;
68140;SDS011;54941;52.220;104.306;2024-02-28T01:01:22;6.80;;;3.38;;
68140;SDS011;54941;52.220;104.306;2024-02-28T01:03:48;4.85;;;2.22;;
68140;SDS011;54941;52.220;104.306;2024-02-28T01:06:15;7.32;;;2.55;;
68140;SDS011;54941;52.220;104.306;2024-02-28T01:08:41;4.65;;;1.90;;
68140;SDS011;54941;52.220;104.306;2024-02-28T01:11:10;5.88;;;1.90;;
68140;SDS011;54941;52.220;104.306;2024-02-28T01:13:36;3.70;;;2.10;;
68140;SDS011;54941;52.220;104.306;2024-02-28T01:16:03;5.60;;;2.72;;
68140;SDS011;54941;52.220;104.306;2024-02-28T01:18:30;3.45;;;2.03;;
68140;SDS011;54941;52.220;104.306;2024-02-28T01:20:56;6.18;;;2.17;;
68140;SDS011;54941;52.220;104.306;2024-02-28T01:23:22;5.80;;;2.38;;
68140;SDS011;54941;52.220;104.306;2024-02-28T01:25:48;4.00;;;2.50;;
68140;SDS011;54941;52.220;104.306;2024-02-28T01:28:16;6.00;;;2.88;;
68140;SDS011;54941;52.220;104.306;2024-02-28T01:30:43;5.55;;;1.80;;
68140;SDS011;54941;52.220;104.306;2024-02-28T01:33:09;6.57;;;2.42;;
68140;SDS011;54941;52.220;104.306;2024-02-28T01:35:35;5.68;;;2.10;;
68140;SDS011;54941;52.220;104.306;2024-02-28T01:38:02;4.65;;;2.00;;
68140;SDS011;54941;52.220;104.306;2024-02-28T01:40:28;4.88;;;2.00;;
68140;SDS011;54941;52.220;104.306;2024-02-28T01:42:54;7.57;;;2.95;;
68140;SDS011;54941;52.220;104.306;2024-02-28T01:45:22;5.38;;;2.00;;
68140;SDS011;54941;52.220;104.306;2024-02-28T01:47:48;3.63;;;1.55;;
68140;SDS011;54941;52.220;104.306;2024-02-28T01:50:15;4.88;;;2.38;;
68140;SDS011;54941;52.220;104.306;2024-02-28T01:52:43;4.97;;;2.40;;
68140;SDS011;54941;52.220;104.306;2024-02-28T01:55:09;4.43;;;1.92;;
68140;SDS011;54941;52.220;104.306;2024-02-28T01:57:36;3.78;;;1.80;;
68140;SDS011;54941;52.220;104.306;2024-02-28T02:00:04;4.93;;;1.75;;
68140;SDS011;54941;52.220;104.306;2024-02-28T02:02:33;7.32;;;2.47;;
68140;SDS011;54941;52.220;104.306;2024-02-28T02:05:00;4.10;;;1.98;;
68140;SDS011;54941;52.220;104.306;2024-02-28T02:07:26;3.97;;;1.70;;
68140;SDS011;54941;52.220;104.306;2024-02-28T02:09:52;5.10;;;2.55;;
68140;SDS011;54941;52.220;104.306;2024-02-28T02:12:19;4.88;;;2.50;;
68140;SDS011;54941;52.220;104.306;2024-02-28T02:14:47;5.22;;;2.08;;
68140;SDS011;54941;52.220;104.306;2024-02-28T02:17:13;6.65;;;2.47;;
68140;SDS011;54941;52.220;104.306;2024-02-28T02:19:41;6.65;;;3.72;;
68140;SDS011;54941;52.220;104.306;2024-02-28T02:22:08;6.75;;;3.33;;
68140;SDS011;54941;52.220;104.306;2024-02-28T02:24:36;4.60;;;2.10;;
68140;SDS011;54941;52.220;104.306;2024-02-28T02:27:02;6.18;;;1.88;;
68140;SDS011;54941;52.220;104.306;2024-02-28T02:29:28;4.35;;;2.10;;
68140;SDS011;54941;52.220;104.306;2024-02-28T02:31:55;4.60;;;2.53;;
68140;SDS011;54941;52.220;104.306;2024-02-28T02:34:21;6.47;;;1.85;;
68140;SDS011;54941;52.220;104.306;2024-02-28T02:36:47;10.85;;;2.20;;
68140;SDS011;54941;52.220;104.306;2024-02-28T02:39:14;3.65;;;1.92;;
68140;SDS011;54941;52.220;104.306;2024-02-28T02:41:41;3.83;;;1.40;;
68140;SDS011;54941;52.220;104.306;2024-02-28T02:44:08;3.65;;;1.83;;
68140;SDS011;54941;52.220;104.306;2024-02-28T02:46:34;4.13;;;2.20;;
68140;SDS011;54941;52.220;104.306;2024-02-28T02:49:00;5.40;;;2.50;;
68140;SDS011;54941;52.220;104.306;2024-02-28T02:51:27;3.95;;;1.83;;
68140;SDS011;54941;52.220;104.306;2024-02-28T02:53:53;4.90;;;2.45;;
68140;SDS011;54941;52.220;104.306;2024-02-28T02:56:19;4.30;;;2.00;;
68140;SDS011;54941;52.220;104.306;2024-02-28T02:58:47;5.13;;;2.17;;
68140;SDS011;54941;52.220;104.306;2024-02-28T03:01:13;5.85;;;2.00;;
68140;SDS011;54941;52.220;104.306;2024-02-28T03:03:39;3.28;;;1.73;;
68140;SDS011;54941;52.220;104.306;2024-02-28T03:06:06;5.72;;;2.20;;
68140;SDS011;54941;52.220;104.306;2024-02-28T03:08:32;6.57;;;2.30;;
68140;SDS011;54941;52.220;104.306;2024-02-28T03:10:58;4.88;;;1.75;;
68140;SDS011;54941;52.220;104.306;2024-02-28T03:13:25;7.93;;;2.38;;
68140;SDS011;54941;52.220;104.306;2024-02-28T03:15:52;4.78;;;2.10;;
68140;SDS011;54941;52.220;104.306;2024-02-28T03:18:18;3.70;;;1.95;;
68140;SDS011;54941;52.220;104.306;2024-02-28T03:20:45;3.15;;;1.10;;
68140;SDS011;54941;52.220;104.306;2024-02-28T03:23:11;5.78;;;2.35;;
68140;SDS011;54941;52.220;104.306;2024-02-28T03:25:37;5.30;;;2.13;;
68140;SDS011;54941;52.220;104.306;2024-02-28T03:28:04;7.65;;;2.80;;
68140;SDS011;54941;52.220;104.306;2024-02-28T03:30:30;4.32;;;2.22;;
68140;SDS011;54941;52.220;104.306;2024-02-28T03:32:58;5.97;;;2.72;;
68140;SDS011;54941;52.220;104.306;2024-02-28T03:35:24;6.28;;;1.88;;
68140;SDS011;54941;52.220;104.306;2024-02-28T03:37:50;6.95;;;2.53;;
68140;SDS011;54941;52.220;104.306;2024-02-28T03:40:17;5.40;;;2.63;;
68140;SDS011;54941;52.220;104.306;2024-02-28T03:42:44;4.25;;;2.80;;
68140;SDS011;54941;52.220;104.306;2024-02-28T03:45:10;5.97;;;1.88;;
68140;SDS011;54941;52.220;104.306;2024-02-28T03:47:36;2.90;;;1.67;;
68140;SDS011;54941;52.220;104.306;2024-02-28T03:50:05;5.50;;;2.00;;
68140;SDS011;54941;52.220;104.306;2024-02-28T03:52:32;8.88;;;2.70;;
68140;SDS011;54941;52.220;104.306;2024-02-28T03:54:58;4.47;;;1.80;;
68140;SDS011;54941;52.220;104.306;2024-02-28T03:57:24;4.82;;;2.20;;
68140;SDS011;54941;52.220;104.306;2024-02-28T03:59:51;6.95;;;2.25;;
68140;SDS011;54941;52.220;104.306;2024-02-28T04:02:17;6.05;;;2.30;;
68140;SDS011;54941;52.220;104.306;2024-02-28T04:04:43;5.05;;;1.80;;
68140;SDS011;54941;52.220;104.306;2024-02-28T04:07:11;5.78;;;2.47;;
68140;SDS011;54941;52.220;104.306;2024-02-28T04:09:38;5.95;;;2.22;;
68140;SDS011;54941;52.220;104.306;2024-02-28T04:12:04;5.70;;;2.30;;
68140;SDS011;54941;52.220;104.306;2024-02-28T04:14:31;2.85;;;1.40;;
68140;SDS011;54941;52.220;104.306;2024-02-28T04:16:57;5.35;;;1.52;;
68140;SDS011;54941;52.220;104.306;2024-02-28T04:19:23;4.45;;;2.67;;
68140;SDS011;54941;52.220;104.306;2024-02-28T04:21:50;3.38;;;1.63;;
68140;SDS011;54941;52.220;104.306;2024-02-28T04:24:17;6.82;;;2.60;;
68140;SDS011;54941;52.220;104.306;2024-02-28T04:26:44;5.40;;;2.17;;
68140;SDS011;54941;52.220;104.306;2024-02-28T04:29:10;6.10;;;2.00;;
68140;SDS011;54941;52.220;104.306;2024-02-28T04:31:37;5.07;;;2.50;;
68140;SDS011;54941;52.220;104.306;2024-02-28T04:34:04;5.13;;;1.80;;
68140;SDS011;54941;52.220;104.306;2024-02-28T04:36:30;5.53;;;2.00;;
68140;SDS011;54941;52.220;104.306;2024-02-28T04:38:56;5.07;;;2.17;;
68140;SDS011;54941;52.220;104.306;2024-02-28T04:41:24;7.13;;;2.40;;
68140;SDS011;54941;52.220;104.306;2024-02-28T04:43:50;5.10;;;2.10;;
68140;SDS011;54941;52.220;104.306;2024-02-28T04:46:16;5.75;;;2.35;;
68140;SDS011;54941;52.220;104.306;2024-02-28T04:48:43;6.47;;;2.85;;
68140;SDS011;54941;52.220;104.306;2024-02-28T04:51:09;4.65;;;2.28;;
68140;SDS011;54941;52.220;104.306;2024-02-28T04:53:35;6.03;;;2.97;;
68140;SDS011;54941;52.220;104.306;2024-02-28T04:56:01;6.47;;;2.72;;
68140;SDS011;54941;52.220;104.306;2024-02-28T04:58:29;5.22;;;2.67;;
68140;SDS011;54941;52.220;104.306;2024-02-28T05:00:56;5.72;;;2.50;;
68140;SDS011;54941;52.220;104.306;2024-02-28T05:03:22;6.55;;;2.55;;
68140;SDS011;54941;52.220;104.306;2024-02-28T05:05:48;5.65;;;2.45;;
68140;SDS011;54941;52.220;104.306;2024-02-28T05:08:14;3.10;;;2.22;;
68140;SDS011;54941;52.220;104.306;2024-02-28T05:10:41;6.10;;;2.63;;
68140;SDS011;54941;52.220;104.306;2024-02-28T05:13:07;5.15;;;1.95;;
68140;SDS011;54941;52.220;104.306;2024-02-28T05:15:35;4.55;;;2.30;;
68140;SDS011;54941;52.220;104.306;2024-02-28T05:18:01;8.50;;;3.10;;
68140;SDS011;54941;52.220;104.306;2024-02-28T05:20:28;6.65;;;2.80;;
68140;SDS011;54941;52.220;104.306;2024-02-28T05:22:54;4.80;;;2.78;;
68140;SDS011;54941;52.220;104.306;2024-02-28T05:25:20;5.32;;;2.40;;
68140;SDS011;54941;52.220;104.306;2024-02-28T05:27:48;7.93;;;2.75;;
68140;SDS011;54941;52.220;104.306;2024-02-28T05:30:14;7.80;;;2.65;;
68140;SDS011;54941;52.220;104.306;2024-02-28T05:32:42;5.68;;;2.67;;
68140;SDS011;54941;52.220;104.306;2024-02-28T05:35:08;5.93;;;3.53;;
68140;SDS011;54941;52.220;104.306;2024-02-28T05:37:34;5.40;;;2.42;;
68140;SDS011;54941;52.220;104.306;2024-02-28T05:40:07;5.78;;;3.30;;
68140;SDS011;54941;52.220;104.306;2024-02-28T05:42:34;4.75;;;2.05;;
68140;SDS011;54941;52.220;104.306;2024-02-28T05:45:00;7.15;;;2.10;;
68140;SDS011;54941;52.220;104.306;2024-02-28T05:47:26;9.90;;;2.97;;
68140;SDS011;54941;52.220;104.306;2024-02-28T05:49:54;3.83;;;2.53;;
68140;SDS011;54941;52.220;104.306;2024-02-28T05:52:20;5.22;;;2.22;;
68140;SDS011;54941;52.220;104.306;2024-02-28T05:54:47;5.60;;;1.90;;
68140;SDS011;54941;52.220;104.306;2024-02-28T05:57:13;7.00;;;2.60;;
68140;SDS011;54941;52.220;104.306;2024-02-28T05:59:39;6.45;;;2.70;;
68140;SDS011;54941;52.220;104.306;2024-02-28T06:02:05;5.93;;;2.25;;
68140;SDS011;54941;52.220;104.306;2024-02-28T06:04:32;7.78;;;2.10;;
68140;SDS011;54941;52.220;104.306;2024-02-28T06:07:00;6.55;;;2.17;;
68140;SDS011;54941;52.220;104.306;2024-02-28T06:09:26;5.57;;;2.17;;
68140;SDS011;54941;52.220;104.306;2024-02-28T06:11:52;4.85;;;2.67;;
68140;SDS011;54941;52.220;104.306;2024-02-28T06:14:18;8.48;;;3.03;;
68140;SDS011;54941;52.220;104.306;2024-02-28T06:16:46;5.53;;;3.60;;
68140;SDS011;54941;52.220;104.306;2024-02-28T06:19:13;3.97;;;1.33;;
68140;SDS011;54941;52.220;104.306;2024-02-28T06:21:39;5.65;;;3.13;;
68140;SDS011;54941;52.220;104.306;2024-02-28T06:24:07;5.47;;;2.45;;
68140;SDS011;54941;52.220;104.306;2024-02-28T06:26:33;4.90;;;2.40;;
68140;SDS011;54941;52.220;104.306;2024-02-28T06:28:59;4.40;;;2.20;;
68140;SDS011;54941;52.220;104.306;2024-02-28T06:31:25;5.55;;;2.08;;
68140;SDS011;54941;52.220;104.306;2024-02-28T06:33:52;5.80;;;2.22;;
68140;SDS011;54941;52.220;104.306;2024-02-28T06:36:18;4.15;;;1.63;;
68140;SDS011;54941;52.220;104.306;2024-02-28T06:38:44;5.53;;;2.28;;
68140;SDS011;54941;52.220;104.306;2024-02-28T06:41:12;6.20;;;1.92;;
68140;SDS011;54941;52.220;104.306;2024-02-28T06:43:38;4.45;;;2.00;;
68140;SDS011;54941;52.220;104.306;2024-02-28T06:46:05;5.88;;;1.90;;
68140;SDS011;54941;52.220;104.306;2024-02-28T06:48:31;4.55;;;2.03;;
68140;SDS011;54941;52.220;104.306;2024-02-28T06:50:57;6.15;;;2.03;;
68140;SDS011;54941;52.220;104.306;2024-02-28T06:53:23;6.43;;;2.92;;
68140;SDS011;54941;52.220;104.306;2024-02-28T06:55:50;5.03;;;1.88;;
68140;SDS011;54941;52.220;104.306;2024-02-28T06:58:18;3.65;;;1.98;;
68140;SDS011;54941;52.220;104.306;2024-02-28T07:00:44;6.18;;;2.33;;
68140;SDS011;54941;52.220;104.306;2024-02-28T07:03:10;7.68;;;2.58;;
68140;SDS011;54941;52.220;104.306;2024-02-28T07:05:37;7.38;;;2.08;;
68140;SDS011;54941;52.220;104.306;2024-02-28T07:08:03;8.40;;;2.97;;
68140;SDS011;54941;52.220;104.306;2024-02-28T07:10:30;11.73;;;3.47;;
68140;SDS011;54941;52.220;104.306;2024-02-28T07:12:56;12.82;;;3.58;;
68140;SDS011;54941;52.220;104.306;2024-02-28T07:15:24;7.85;;;1.95;;
68140;SDS011;54941;52.220;104.306;2024-02-28T07:17:50;4.63;;;2.75;;
68140;SDS011;54941;52.220;104.306;2024-02-28T07:20:16;7.97;;;2.50;;
68140;SDS011;54941;52.220;104.306;2024-02-28T07:22:43;7.68;;;3.15;;
68140;SDS011;54941;52.220;104.306;2024-02-28T07:25:09;6.88;;;2.58;;
68140;SDS011;54941;52.220;104.306;2024-02-28T07:27:35;7.70;;;2.78;;
68140;SDS011;54941;52.220;104.306;2024-02-28T07:30:01;7.95;;;3.08;;
68140;SDS011;54941;52.220;104.306;2024-02-28T07:32:32;7.07;;;2.67;;
68140;SDS011;54941;52.220;104.306;2024-02-28T07:34:58;5.68;;;3.03;;
68140;SDS011;54941;52.220;104.306;2024-02-28T07:37:25;8.35;;;3.42;;
68140;SDS011;54941;52.220;104.306;2024-02-28T07:39:51;9.02;;;3.70;;
68140;SDS011;54941;52.220;104.306;2024-02-28T07:42:17;6.95;;;3.60;;
68140;SDS011;54941;52.220;104.306;2024-02-28T07:44:44;6.63;;;2.35;;
68140;SDS011;54941;52.220;104.306;2024-02-28T07:47:10;6.68;;;2.53;;
68140;SDS011;54941;52.220;104.306;2024-02-28T07:49:38;5.97;;;2.42;;
68140;SDS011;54941;52.220;104.306;2024-02-28T07:52:04;10.02;;;3.97;;
68140;SDS011;54941;52.220;104.306;2024-02-28T07:54:30;8.02;;;3.28;;
68140;SDS011;54941;52.220;104.306;2024-02-28T07:56:56;8.75;;;2.92;;
68140;SDS011;54941;52.220;104.306;2024-02-28T07:59:23;5.50;;;2.58;;
68140;SDS011;54941;52.220;104.306;2024-02-28T08:01:49;8.60;;;3.65;;
68140;SDS011;54941;52.220;104.306;2024-02-28T08:04:15;6.70;;;2.80;;
68140;SDS011;54941;52.220;104.306;2024-02-28T08:06:43;7.53;;;2.70;;
68140;SDS011;54941;52.220;104.306;2024-02-28T08:09:09;5.68;;;2.40;;
68140;SDS011;54941;52.220;104.306;2024-02-28T08:11:36;8.48;;;2.97;;
68140;SDS011;54941;52.220;104.306;2024-02-28T08:14:02;5.68;;;2.50;;
68140;SDS011;54941;52.220;104.306;2024-02-28T08:16:28;7.47;;;3.22;;
68140;SDS011;54941;52.220;104.306;2024-02-28T08:18:57;9.75;;;2.42;;
68140;SDS011;54941;52.220;104.306;2024-02-28T08:21:24;6.75;;;3.80;;
68140;SDS011;54941;52.220;104.306;2024-02-28T08:23:52;7.47;;;1.85;;
68140;SDS011;54941;52.220;104.306;2024-02-28T08:26:18;8.63;;;3.25;;
68140;SDS011;54941;52.220;104.306;2024-02-28T08:28:44;7.95;;;3.95;;
68140;SDS011;54941;52.220;104.306;2024-02-28T08:31:10;8.77;;;2.80;;
68140;SDS011;54941;52.220;104.306;2024-02-28T08:33:37;9.15;;;3.78;;
68140;SDS011;54941;52.220;104.306;2024-02-28T08:36:03;4.65;;;2.35;;
68140;SDS011;54941;52.220;104.306;2024-02-28T08:38:30;8.48;;;4.07;;
68140;SDS011;54941;52.220;104.306;2024-02-28T08:40:58;9.00;;;3.55;;
68140;SDS011;54941;52.220;104.306;2024-02-28T08:43:24;6.82;;;2.65;;
68140;SDS011;54941;52.220;104.306;2024-02-28T08:45:50;9.35;;;4.25;;
68140;SDS011;54941;52.220;104.306;2024-02-28T08:48:16;5.95;;;3.67;;
68140;SDS011;54941;52.220;104.306;2024-02-28T08:50:43;9.23;;;2.75;;
68140;SDS011;54941;52.220;104.306;2024-02-28T08:53:09;8.80;;;4.00;;
68140;SDS011;54941;52.220;104.306;2024-02-28T08:55:35;10.68;;;3.85;;
68140;SDS011;54941;52.220;104.306;2024-02-28T08:58:03;10.25;;;3.17;;
68140;SDS011;54941;52.220;104.306;2024-02-28T09:00:29;11.68;;;4.22;;
68140;SDS011;54941;52.220;104.306;2024-02-28T09:02:56;11.48;;;3.55;;
68140;SDS011;54941;52.220;104.306;2024-02-28T09:05:22;7.13;;;3.70;;
68140;SDS011;54941;52.220;104.306;2024-02-28T09:07:49;11.57;;;4.22;;
68140;SDS011;54941;52.220;104.306;2024-02-28T09:10:15;9.27;;;3.80;;
68140;SDS011;54941;52.220;104.306;2024-02-28T09:12:41;8.57;;;3.42;;
68140;SDS011;54941;52.220;104.306;2024-02-28T09:15:09;7.88;;;2.67;;
68140;SDS011;54941;52.220;104.306;2024-02-28T09:17:36;12.35;;;4.35;;
68140;SDS011;54941;52.220;104.306;2024-02-28T09:20:02;16.20;;;4.43;;
68140;SDS011;54941;52.220;104.306;2024-02-28T09:22:30;11.23;;;4.28;;
68140;SDS011;54941;52.220;104.306;2024-02-28T09:24:56;11.38;;;3.78;;
68140;SDS011;54941;52.220;104.306;2024-02-28T09:27:22;10.68;;;4.47;;
68140;SDS011;54941;52.220;104.306;2024-02-28T09:29:49;10.90;;;4.38;;
68140;SDS011;54941;52.220;104.306;2024-02-28T09:32:16;9.25;;;3.95;;
68140;SDS011;54941;52.220;104.306;2024-02-28T09:34:43;12.90;;;3.75;;
68140;SDS011;54941;52.220;104.306;2024-02-28T09:37:09;9.35;;;3.70;;
68140;SDS011;54941;52.220;104.306;2024-02-28T09:39:37;13.50;;;4.72;;
68140;SDS011;54941;52.220;104.306;2024-02-28T09:42:03;8.57;;;4.85;;
68140;SDS011;54941;52.220;104.306;2024-02-28T09:44:31;9.57;;;3.95;;
68140;SDS011;54941;52.220;104.306;2024-02-28T09:46:58;8.75;;;4.03;;
68140;SDS011;54941;52.220;104.306;2024-02-28T09:49:26;10.27;;;4.38;;
68140;SDS011;54941;52.220;104.306;2024-02-28T09:51:54;5.50;;;2.72;;
68140;SDS011;54941;52.220;104.306;2024-02-28T09:54:22;10.93;;;3.20;;
68140;SDS011;54941;52.220;104.306;2024-02-28T09:56:48;5.22;;;2.58;;
68140;SDS011;54941;52.220;104.306;2024-02-28T09:59:16;10.45;;;4.10;;
68140;SDS011;54941;52.220;104.306;2024-02-28T10:01:44;13.88;;;4.15;;
68140;SDS011;54941;52.220;104.306;2024-02-28T10:04:19;11.52;;;3.47;;
68140;SDS011;54941;52.220;104.306;2024-02-28T10:06:47;9.32;;;3.92;;
68140;SDS011;54941;52.220;104.306;2024-02-28T10:09:13;8.57;;;3.78;;
68140;SDS011;54941;52.220;104.306;2024-02-28T10:11:41;8.98;;;3.55;;
68140;SDS011;54941;52.220;104.306;2024-02-28T10:14:07;7.20;;;3.95;;
68140;SDS011;54941;52.220;104.306;2024-02-28T10:16:34;9.05;;;4.47;;
68140;SDS011;54941;52.220;104.306;2024-02-28T10:19:00;11.68;;;4.47;;
68140;SDS011;54941;52.220;104.306;2024-02-28T10:21:26;17.70;;;5.13;;
68140;SDS011;54941;52.220;104.306;2024-02-28T10:23:57;11.23;;;3.90;;
68140;SDS011;54941;52.220;104.306;2024-02-28T10:26:23;9.95;;;5.00;;
68140;SDS011;54941;52.220;104.306;2024-02-28T10:28:50;10.68;;;4.07;;
68140;SDS011;54941;52.220;104.306;2024-02-28T10:31:17;8.27;;;3.67;;
68140;SDS011;54941;52.220;104.306;2024-02-28T10:33:46;9.20;;;4.55;;
68140;SDS011;54941;52.220;104.306;2024-02-28T10:36:12;8.30;;;3.83;;
68140;SDS011;54941;52.220;104.306;2024-02-28T10:38:39;10.48;;;4.57;;
68140;SDS011;54941;52.220;104.306;2024-02-28T10:41:06;9.85;;;3.65;;
68140;SDS011;54941;52.220;104.306;2024-02-28T10:43:33;11.82;;;5.50;;
68140;SDS011;54941;52.220;104.306;2024-02-28T10:45:59;10.25;;;4.43;;
68140;SDS011;54941;52.220;104.306;2024-02-28T10:48:26;9.38;;;4.30;;
68140;SDS011;54941;52.220;104.306;2024-02-28T10:50:52;12.98;;;4.75;;
68140;SDS011;54941;52.220;104.306;2024-02-28T10:53:20;16.65;;;5.75;;
68140;SDS011;54941;52.220;104.306;2024-02-28T10:55:48;12.23;;;5.50;;
68140;SDS011;54941;52.220;104.306;2024-02-28T10:58:18;8.93;;;3.85;;
68140;SDS011;54941;52.220;104.306;2024-02-28T11:00:47;14.63;;;5.80;;
68140;SDS011;54941;52.220;104.306;2024-02-28T11:03:15;10.95;;;3.97;;
68140;SDS011;54941;52.220;104.306;2024-02-28T11:05:43;11.93;;;5.05;;
68140;SDS011;54941;52.220;104.306;2024-02-28T11:08:10;14.68;;;4.85;;
68140;SDS011;54941;52.220;104.306;2024-02-28T11:10:40;9.40;;;3.45;;
68140;SDS011;54941;52.220;104.306;2024-02-28T11:13:06;13.80;;;4.90;;
68140;SDS011;54941;52.220;104.306;2024-02-28T11:15:34;8.10;;;3.92;;
68140;SDS011;54941;52.220;104.306;2024-02-28T11:18:06;10.88;;;4.20;;
68140;SDS011;54941;52.220;104.306;2024-02-28T11:20:33;8.10;;;3.47;;
68140;SDS011;54941;52.220;104.306;2024-02-28T11:23:00;9.50;;;4.05;;
68140;SDS011;54941;52.220;104.306;2024-02-28T11:25:27;12.70;;;4.03;;
68140;SDS011;54941;52.220;104.306;2024-02-28T11:27:53;10.00;;;3.75;;
68140;SDS011;54941;52.220;104.306;2024-02-28T11:30:21;11.65;;;3.80;;
68140;SDS011;54941;52.220;104.306;2024-02-28T11:32:48;11.27;;;4.88;;
68140;SDS011;54941;52.220;104.306;2024-02-28T11:35:17;15.02;;;4.63;;
68140;SDS011;54941;52.220;104.306;2024-02-28T11:37:45;11.75;;;4.68;;
68140;SDS011;54941;52.220;104.306;2024-02-28T11:40:11;14.13;;;5.43;;
68140;SDS011;54941;52.220;104.306;2024-02-28T11:42:37;14.48;;;5.63;;
68140;SDS011;54941;52.220;104.306;2024-02-28T11:45:04;10.30;;;4.80;;
68140;SDS011;54941;52.220;104.306;2024-02-28T11:47:31;10.23;;;4.18;;
68140;SDS011;54941;52.220;104.306;2024-02-28T11:49:59;16.17;;;4.82;;
68140;SDS011;54941;52.220;104.306;2024-02-28T11:52:26;10.40;;;3.90;;
68140;SDS011;54941;52.220;104.306;2024-02-28T11:54:53;13.88;;;4.40;;
68140;SDS011;54941;52.220;104.306;2024-02-28T11:57:19;13.02;;;5.80;;
68140;SDS011;54941;52.220;104.306;2024-02-28T11:59:45;12.68;;;4.28;;
68140;SDS011;54941;52.220;104.306;2024-02-28T12:02:12;15.70;;;4.93;;
68140;SDS011;54941;52.220;104.306;2024-02-28T12:04:39;15.93;;;5.57;;
68140;SDS011;54941;52.220;104.306;2024-02-28T12:07:07;16.77;;;5.28;;
68140;SDS011;54941;52.220;104.306;2024-02-28T12:09:33;12.13;;;5.30;;
68140;SDS011;54941;52.220;104.306;2024-02-28T12:12:00;17.25;;;5.88;;
68140;SDS011;54941;52.220;104.306;2024-02-28T12:14:27;14.70;;;5.88;;
68140;SDS011;54941;52.220;104.306;2024-02-28T12:16:53;17.70;;;5.22;;
68140;SDS011;54941;52.220;104.306;2024-02-28T12:19:23;10.43;;;5.03;;
68140;SDS011;54941;52.220;104.306;2024-02-28T12:21:50;11.55;;;4.68;;
68140;SDS011;54941;52.220;104.306;2024-02-28T12:24:17;16.23;;;6.32;;
68140;SDS011;54941;52.220;104.306;2024-02-28T12:26:44;12.77;;;6.45;;
68140;SDS011;54941;52.220;104.306;2024-02-28T12:29:10;17.90;;;6.85;;
68140;SDS011;54941;52.220;104.306;2024-02-28T12:31:36;14.85;;;5.20;;
68140;SDS011;54941;52.220;104.306;2024-02-28T12:34:02;13.15;;;5.35;;
68140;SDS011;54941;52.220;104.306;2024-02-28T12:36:29;22.20;;;7.97;;
68140;SDS011;54941;52.220;104.306;2024-02-28T12:38:55;13.65;;;6.72;;
68140;SDS011;54941;52.220;104.306;2024-02-28T12:41:23;15.15;;;6.75;;
68140;SDS011;54941;52.220;104.306;2024-02-28T12:43:49;19.60;;;6.65;;
68140;SDS011;54941;52.220;104.306;2024-02-28T12:46:15;14.13;;;6.03;;
68140;SDS011;54941;52.220;104.306;2024-02-28T12:48:41;19.50;;;7.20;;
68140;SDS011;54941;52.220;104.306;2024-02-28T12:51:08;16.58;;;6.40;;
68140;SDS011;54941;52.220;104.306;2024-02-28T12:53:39;18.08;;;7.80;;
68140;SDS011;54941;52.220;104.306;2024-02-28T12:56:06;15.18;;;6.55;;
68140;SDS011;54941;52.220;104.306;2024-02-28T12:58:34;17.50;;;6.85;;
68140;SDS011;54941;52.220;104.306;2024-02-28T13:01:01;18.55;;;7.07;;
68140;SDS011;54941;52.220;104.306;2024-02-28T13:03:27;17.77;;;8.52;;
68140;SDS011;54941;52.220;104.306;2024-02-28T13:05:54;21.30;;;8.02;;
68140;SDS011;54941;52.220;104.306;2024-02-28T13:08:20;19.65;;;8.02;;
68140;SDS011;54941;52.220;104.306;2024-02-28T13:10:46;17.52;;;7.97;;
68140;SDS011;54941;52.220;104.306;2024-02-28T13:13:13;19.92;;;9.10;;
68140;SDS011;54941;52.220;104.306;2024-02-28T13:15:41;20.05;;;8.23;;
68140;SDS011;54941;52.220;104.306;2024-02-28T13:18:08;23.73;;;8.30;;
68140;SDS011;54941;52.220;104.306;2024-02-28T13:20:35;22.98;;;9.48;;
68140;SDS011;54941;52.220;104.306;2024-02-28T13:23:01;19.63;;;8.77;;
68140;SDS011;54941;52.220;104.306;2024-02-28T13:25:27;19.42;;;9.80;;
68140;SDS011;54941;52.220;104.306;2024-02-28T13:27:54;25.40;;;10.75;;
68140;SDS011;54941;52.220;104.306;2024-02-28T13:30:20;27.48;;;10.98;;
68140;SDS011;54941;52.220;104.306;2024-02-28T13:32:48;18.60;;;8.00;;
68140;SDS011;54941;52.220;104.306;2024-02-28T13:35:14;19.73;;;8.15;;
68140;SDS011;54941;52.220;104.306;2024-02-28T13:37:40;20.92;;;9.32;;
68140;SDS011;54941;52.220;104.306;2024-02-28T13:40:07;24.70;;;9.27;;
68140;SDS011;54941;52.220;104.306;2024-02-28T13:42:36;25.38;;;9.27;;
68140;SDS011;54941;52.220;104.306;2024-02-28T13:45:02;26.52;;;9.52;;
68140;SDS011;54941;52.220;104.306;2024-02-28T13:47:30;23.85;;;9.63;;
68140;SDS011;54941;52.220;104.306;2024-02-28T13:49:57;23.13;;;8.00;;
68140;SDS011;54941;52.220;104.306;2024-02-28T13:52:24;25.63;;;9.60;;
68140;SDS011;54941;52.220;104.306;2024-02-28T13:54:50;22.58;;;8.93;;
68140;SDS011;54941;52.220;104.306;2024-02-28T13:57:16;22.75;;;9.93;;
68140;SDS011;54941;52.220;104.306;2024-02-28T13:59:42;18.45;;;8.95;;
68140;SDS011;54941;52.220;104.306;2024-02-28T14:02:09;21.80;;;8.52;;
68140;SDS011;54941;52.220;104.306;2024-02-28T14:04:35;21.38;;;9.82;;
68140;SDS011;54941;52.220;104.306;2024-02-28T14:07:03;20.27;;;8.10;;
68140;SDS011;54941;52.220;104.306;2024-02-28T14:09:30;25.35;;;10.70;;
68140;SDS011;54941;52.220;104.306;2024-02-28T14:11:56;27.85;;;12.40;;
68140;SDS011;54941;52.220;104.306;2024-02-28T14:14:22;25.08;;;9.27;;